Tiempo atmosférico en la estación meteorológica de El Bodón Base Aérea, Salamanca (805 m.)



Fecha
DESCASC
Temp. máxima en grados centígrados (hora)
DESCASC
Temp. mínima en grados centígrados (hora)
DESCASC
Temp. media en grados centígrados
DESCASC
Racha de viento máxima en m/sg (hora)
DESCASC
Velocidad máxima media en intervalos de 10 minutos(hora)
DESCASC
Precipitaciones diarias en mm
DESCASC
Precipitaciones de 00:00 a 06:00 en mm
DESCASC
Precipitaciones de 06:00 a 12:00 en mm
DESCASC
Precipitaciones de 12:00 a 18:00 en mm
DESCASC
Precipitaciones de 18:00 a 24:00 en mm
DESCASC
23-05-2018 22.2 (14:40) 8.4 (06:20) 15.3 8.61 (16:30) 5.83 (18:00) 0 0 0 0 0
22-05-2018 21.8 (16:20) 7.8 (07:30) 14.8 8.33 (14:50) 4.44 (12:20) 0 0 0 0 0
21-05-2018 20.7 (18:50) 6.1 (07:10) 13.4 10.83 (16:10) 6.11 (13:30) 0 0 0 0 0
20-05-2018 20.4 (14:50) 9.5 (00:00) 14.9 12.5 (16:30) 6.39 (18:50) 25.2 1 1.2 22.2 0.8
19-05-2018 20.9 (14:20) 6 (00:00) 13.4 8.61 (13:00) 5 (17:30) 0 0 0 0 0
18-05-2018 18.5 (18:30) 6.9 (00:00) 12.7 8.89 (00:10) 6.11 (00:20) 3 0 2.2 0.6 0.2
17-05-2018 22.7 (15:20) 7.5 (00:00) 15.1 9.72 (23:20) 5.56 (23:10) 3 0 0 0.6 2.4
16-05-2018 22.4 (17:40) 6.3 (00:00) 14.3 8.61 (14:00) 5.56 (14:20) 0 0 0 0 0
15-05-2018 20.6 (18:50) 3.9 (00:00) 12.3 10.28 (16:50) 6.67 (13:50) 0 0 0 0 0
14-05-2018 17 (19:50) 5.3 (00:00) 11.2 10 (14:00) 6.11 (15:00) 0 0 0 0 0
13-05-2018 13.4 (16:30) 1.2 (00:00) 7.3 9.72 (19:10) 6.67 (19:30) 0 0 0 0 0
12-05-2018 13.1 (17:10) 5.4 (00:00) 9.3 13.61 (18:30) 8.89 (18:40) 0 0 0 0 0
11-05-2018 20 (15:30) 8.6 (07:20) 14.3 12.22 (15:50) 7.78 (12:10) 0 0 0 0 0
10-05-2018 21.1 (18:20) 7.7 (00:00) 14.4 9.44 (12:00) 5.83 (12:00) 0 0 0 0 0
09-05-2018 20.7 (16:50) 7.6 (00:00) 14.2 8.89 (19:20) 6.11 (19:20) 0 0 0 0 0
08-05-2018 23.4 (16:50) 10.8 (00:00) 17.1 9.72 (20:30) 6.94 (20:30) 0 0 0 0 0
07-05-2018 22.8 (16:00) 7.8 (00:00) 15.3 13.89 (17:20) 6.67 (17:20) 8 0 0 7 1
06-05-2018 20.6 (14:20) 6.8 (00:00) 13.7 10 (16:10) 5.28 (14:10) 9.8 0 0 9.8 0
05-05-2018 20.3 (18:40) 3.2 (00:00) 11.7 5.83 (13:40) 3.89 (19:50) 0 0 0 0 0
04-05-2018 16.1 (18:20) 2.7 (00:00) 9.4 12.78 (12:40) 7.78 (13:20) 0 0 0 0 0
03-05-2018 15.6 (16:50) 7.7 (00:00) 11.7 10 (18:30) 6.11 (19:20) 0 0 0 0 0
02-05-2018 14.6 (15:40) 2.4 (00:00) 8.5 7.78 (17:00) 5 (20:40) 0 0 0 0 0
01-05-2018 13.3 (19:00) 1.6 (08:40) 7.5 6.67 (14:10) 4.72 (22:20) 0 0 0 0 0
30-04-2018 11.3 (18:00) 0.7 (00:00) 6 8.06 (19:00) 5.28 (19:10) 0.2 0 0 0 0.2
29-04-2018 8.8 (13:30) 3 (00:00) 5.9 14.17 (14:30) 9.17 (14:30) 3.4 3 0.2 0.2 0
28-04-2018 13 (16:50) 4.5 (00:00) 8.8 10.28 (17:10) 6.39 (18:40) 0 0 0 0 0

Gráficas

Temp. máximas Temp. mínimas Temp. medias Precipitaciones Rachas de viento máximas Velocidades máximas media en intervalos de 10 minutos

Datos horarios

Fecha y hora oficial Temperatura (ºC) Velocidad del viento (km/h) Dirección del viento Racha (km/h) Dirección de racha Precipitación (mm) Presión (hPa) Tendencia (hPa) Humedad (%)
2018-05-27 23:00:00 12.6 5 Norte 9 Norte 0 -- -- 95
2018-05-27 22:00:00 12.9 3 Norte 8 Este 0 -- -- 93
2018-05-27 21:00:00 12.9 8 Norte 18 Norte 0.2 -- -- 93
2018-05-27 20:00:00 14.6 6 Nordeste 18 Noroeste 0 -- -- 90
2018-05-27 19:00:00 14.5 10 Sur 19 Sur 0.6 -- -- 90
2018-05-27 18:00:00 14.7 10 Sudoeste 18 Este 0.6 -- -- 87
2018-05-27 17:00:00 16.6 15 Este 25 Este 8.8 -- -- 83
2018-05-27 16:00:00 15.1 17 Sudeste 32 Este 3.6 -- -- 81
2018-05-27 15:00:00 19 13 Noroeste 22 Noroeste 0 -- -- 63
2018-05-27 14:00:00 18.8 6 Norte 21 Noroeste 0 -- -- 60
2018-05-27 13:00:00 18.4 9 Noroeste 20 Oeste 0 -- -- 66
2018-05-27 12:00:00 17.5 7 Norte 15 Sudoeste 0 -- -- 75
2018-05-27 11:00:00 16.3 2 Noroeste 8 Oeste 0 -- -- 78
2018-05-27 10:00:00 13.2 3 Sudoeste 9 Sur 0 -- -- 95
2018-05-27 09:00:00 11.4 3 Sur 11 Sudeste 0 -- -- 97
2018-05-27 08:00:00 10.5 2 Noroeste 8 Sur 0 -- -- 97
2018-05-27 07:00:00 10.1 7 Sur 9 Sudeste 0 -- -- 96
2018-05-27 06:00:00 10 6 Sur 8 Sur 0 -- -- 96
2018-05-27 05:00:00 10.1 5 Sur 9 Sur 0 -- -- 97
2018-05-27 04:00:00 9.8 6 Sur 10 Sur 0 -- -- 96
2018-05-27 03:00:00 9.8 6 Sur 9 Sur 0 -- -- 94
2018-05-27 02:00:00 10.2 4 Sudeste 8 Este 0 -- -- 93
2018-05-27 01:00:00 10.4 4 Sudeste 12 Sudeste 0 -- -- 92
2018-05-27 00:00:00 11.6 7 Sudeste 10 Este 0 -- -- 89
2018-05-26 23:00:00 12.1 3 Sudoeste 8 Oeste 0 -- -- 88
2018-05-26 22:00:00 13.1 0 Calma 15 Noroeste 0 -- -- 86
2018-05-26 21:00:00 15.3 4 Norte 8 Noroeste 0 -- -- 80
2018-05-26 20:00:00 15.4 7 Norte 18 Sur 0 -- -- 82
2018-05-26 19:00:00 17 6 Sur 20 Sudeste 0 -- -- 64
2018-05-26 18:00:00 16.8 11 Sudeste 19 Sur 0 -- -- 66
2018-05-26 17:00:00 15.3 17 Sur 28 Sur 0.2 -- -- 77
2018-05-26 16:00:00 16.7 10 Sur 23 Sur 0 -- -- 66
2018-05-26 15:00:00 17 9 Sur 21 Sur 0 -- -- 59
2018-05-26 14:00:00 16.2 15 Sudoeste 25 Sur 0 -- -- 64
2018-05-26 13:00:00 16.6 12 Sur 22 Sur 0 -- -- 63
2018-05-26 12:00:00 15.7 10 Sur 25 Sur 0 -- -- 72
2018-05-26 11:00:00 14 14 Sur 25 Sur 0 -- -- 77
2018-05-26 10:00:00 13.3 7 Sur 10 Sur 0 -- -- 88
2018-05-26 09:00:00 10.9 6 Sur 12 Sudeste 0 -- -- 97
2018-05-26 08:00:00 8.8 5 Sudeste 9 Sur 0 -- -- 98
2018-05-26 07:00:00 8.5 7 Sur 10 Sur 0 -- -- 97
2018-05-26 06:00:00 8.9 6 Sur 10 Sudeste 0 -- -- 97
2018-05-26 05:00:00 8.7 7 Sudeste 9 Sudeste 0 -- -- 97
2018-05-26 04:00:00 9.2 6 Sudeste 9 Sudeste 0 -- -- 96
2018-05-26 03:00:00 9.4 4 Sudeste 11 Sur 0 -- -- 95
2018-05-26 02:00:00 9.6 5 Sudoeste 10 Sudeste 0 -- -- 93
2018-05-26 01:00:00 10 6 Sudoeste 9 Sur 0 -- -- 93
2018-05-26 00:00:00 10.5 3 Sudoeste 5 Sur 0 -- -- 89
2018-05-25 23:00:00 11.6 0 Calma 8 Norte 0 -- -- 87
2018-05-25 22:00:00 12.6 4 Norte 11 Noroeste 0 -- -- 85
2018-05-25 21:00:00 13.5 6 Sur 10 Sur 0 -- -- 83
2018-05-25 20:00:00 14 9 Sudeste 22 Sur 0.2 -- -- 76
2018-05-25 19:00:00 15.2 11 Sur 17 Sur 0 -- -- 62
2018-05-25 18:00:00 15.3 12 Sur 22 Sur 0 -- -- 63
2018-05-25 17:00:00 15 12 Sudeste 21 Sur 0 -- -- 74
2018-05-25 16:00:00 13.7 15 Sur 30 Sur 1.4 -- -- 78
2018-05-25 15:00:00 14.5 20 Sur 28 Sur 0 -- -- 73
2018-05-25 14:00:00 14.4 12 Sur 25 Sur 0 -- -- 76
2018-05-25 13:00:00 14.7 17 Sur 25 Sur 0 -- -- 76
2018-05-25 12:00:00 13.9 14 Sur 21 Sur 0 -- -- 82
2018-05-25 11:00:00 12.8 8 Sudeste 14 Este 0 -- -- 86
2018-05-25 10:00:00 12.4 9 Sur 13 Sur 0 -- -- 92
2018-05-25 09:00:00 11.1 3 Sur 6 Sur 0 -- -- 97
2018-05-25 08:00:00 10.6 0 Calma 16 Sudeste 0 -- -- 97
2018-05-25 07:00:00 10.2 6 Sur 14 Sur 0 -- -- 97
2018-05-25 06:00:00 9.5 3 Sudoeste 14 Sur 0 -- -- 96
2018-05-25 05:00:00 10.3 13 Sur 17 Sur 0 -- -- 95
2018-05-25 04:00:00 10.6 12 Sur 19 Sur 0 -- -- 96
2018-05-25 03:00:00 10.2 6 Sur 15 Sudeste 0 -- -- 96
2018-05-25 02:00:00 11 14 Sudeste 19 Sur 0 -- -- 95
2018-05-25 01:00:00 11.6 12 Sur 21 Sur 0 -- -- 95
2018-05-25 00:00:00 12.1 9 Sur 18 Este 0.2 -- -- 95
2018-05-24 23:00:00 12.3 4 Sur 32 Sur 0.4 -- -- 93
2018-05-24 22:00:00 13.4 5 Sur 12 Sur 0 -- -- 94
2018-05-24 21:00:00 13.3 7 Noroeste 36 Sudeste 12 -- -- 91
2018-05-24 20:00:00 15.4 6 Norte 17 Norte 2 -- -- 90
2018-05-24 19:00:00 16 12 Norte 23 Norte 0 -- -- 85
2018-05-24 18:00:00 16 14 Norte 30 Norte 0 -- -- 84
2018-05-24 17:00:00 16.1 14 Nordeste 26 Nordeste 0 -- -- 84
2018-05-24 16:00:00 15.7 15 Norte 29 Nordeste 0 -- -- 89
2018-05-24 15:00:00 14.7 18 Norte 29 Norte 0 -- -- 90
2018-05-24 14:00:00 14.6 13 Norte 19 Norte 0.4 -- -- 94
2018-05-24 13:00:00 14 10 Norte 18 Norte 0 -- -- 95
2018-05-24 12:00:00 13.7 13 Noroeste 21 Sur 0.8 -- -- 94
2018-05-24 11:00:00 13 16 Sur 23 Sur 0.2 -- -- 93
2018-05-24 10:00:00 12.8 5 Norte 10 Norte 0 -- -- 92
2018-05-24 09:00:00 11.9 9 Sudoeste 27 Sur 0.8 -- -- 91
2018-05-24 08:00:00 11.8 6 Sudeste 9 Sudeste 0 -- -- 90
2018-05-24 07:00:00 11.9 6 Sudeste 8 Sur 0 -- -- 85
2018-05-24 06:00:00 12.5 3 Sudoeste 9 Sur 0 -- -- 84
2018-05-24 05:00:00 11.6 6 Sur 13 Sur 0 -- -- 88
2018-05-24 04:00:00 11.8 8 Sudeste 13 Sur 0 -- -- 87
2018-05-24 03:00:00 12.9 4 Sudeste 8 Sur 0 -- -- 78
2018-05-24 02:00:00 14.4 3 Norte 13 Noroeste 0 -- -- 72
2018-05-24 01:00:00 14.1 7 Sur 10 Sudeste 0 -- -- 75
2018-05-24 00:00:00 15.3 4 Sudeste 12 Sudeste 0 -- -- 65
2018-05-23 23:00:00 16.2 5 Sur 12 Sur 0 -- -- 61
2018-05-23 22:00:00 16.9 11 Sudoeste 15 Sur 0 -- -- 60
2018-05-23 21:00:00 19.8 12 Sur 22 Sur 0 -- -- 53
2018-05-23 20:00:00 21.3 18 Sur 25 Sudoeste 0 -- -- 44
2018-05-23 19:00:00 22 12 Sudoeste 28 Sudoeste 0 -- -- 47
2018-05-23 18:00:00 21.5 21 Sur 30 Sur 0 -- -- 49
2018-05-23 17:00:00 22 14 Sur 31 Sur 0 -- -- 45
2018-05-23 16:00:00 21.7 15 Sur 29 Sur 0 -- -- 47
2018-05-23 15:00:00 22 14 Sur 25 Sudeste 0 -- -- 46
2018-05-23 14:00:00 21.3 13 Sur 26 Sur 0 -- -- 48
2018-05-23 13:00:00 20.3 13 Sudoeste 24 Sudoeste 0 -- -- 53
2018-05-23 12:00:00 19.6 8 Sur 15 Sur 0 -- -- 59
2018-05-23 11:00:00 17.7 4 Sur 8 Sudoeste 0 -- -- 73
2018-05-23 10:00:00 14.1 4 Sur 11 Sur 0 -- -- 86
2018-05-23 09:00:00 10.7 9 Sur 14 Sur 0 -- -- 91
2018-05-23 08:00:00 8.9 11 Sur 15 Sur 0 -- -- 90
2018-05-23 07:00:00 8.5 11 Sur 14 Sur 0 -- -- 91
2018-05-23 06:00:00 8.7 8 Sur 13 Sudeste 0 -- -- 90
2018-05-23 05:00:00 9.4 11 Sur 13 Sur 0 -- -- 90
2018-05-23 04:00:00 10.2 8 Sur 10 Sur 0 -- -- 88
2018-05-23 03:00:00 11.1 7 Sur 13 Sur 0 -- -- 89
2018-05-23 02:00:00 12.1 11 Sur 15 Sur 0 -- -- 84
2018-05-23 01:00:00 12.9 8 Sur 12 Sur 0 -- -- 83
2018-05-23 00:00:00 15 8 Sur 11 Sur 0 -- -- 73
2018-05-22 23:00:00 15.5 6 Sur 10 Sudeste 0 -- -- 71
2018-05-22 22:00:00 17.1 6 Sur 11 Sur 0 -- -- 65
2018-05-22 21:00:00 19.4 8 Sur 19 Sur 0 -- -- 57
2018-05-22 20:00:00 20.6 14 Sur 26 Sur 0 -- -- 50
2018-05-22 19:00:00 21.4 12 Sur 24 Sur 0 -- -- 46
2018-05-22 18:00:00 21.6 15 Sur 25 Sur 0 -- -- 46
2018-05-22 17:00:00 21.8 14 Sur 24 Sur 0 -- -- 48
2018-05-22 16:00:00 21.5 14 Sur 26 Sur 0 -- -- 49
2018-05-22 15:00:00 21.2 16 Sur 30 Sudeste 0 -- -- 50
2018-05-22 14:00:00 20.4 13 Sur 25 Sur 0 -- -- 48
2018-05-22 13:00:00 19.9 14 Sur 24 Sur 0 -- -- 53
2018-05-22 12:00:00 19 13 Sur 21 Sur 0 -- -- 55
2018-05-22 11:00:00 18.1 13 Sur 20 Sur 0 -- -- 59
2018-05-22 10:00:00 15.3 5 Sur 10 Sur 0 -- -- 79
2018-05-22 09:00:00 11.4 5 Sudeste 13 Sur 0 -- -- 92
2018-05-22 08:00:00 8.1 10 Sur 17 Sur 0 -- -- 95
2018-05-22 07:00:00 8.1 10 Sur 13 Sur 0 -- -- 94
2018-05-22 06:00:00 8.6 9 Sur 13 Sur 0 -- -- 94
2018-05-22 05:00:00 9.4 9 Sur 12 Sur 0 -- -- 93
2018-05-22 04:00:00 9.9 7 Sur 12 Sudeste 0 -- -- 88
2018-05-22 03:00:00 11.2 7 Este 9 Este 0 -- -- 83
2018-05-22 02:00:00 11.9 5 Norte 7 Norte 0 -- -- 78
2018-05-22 01:00:00 12.7 5 Nordeste 10 Norte 0 -- -- 74
2018-05-22 00:00:00 13.6 9 Sudoeste 13 Sur 0 -- -- 75
2018-05-21 23:00:00 14.8 7 Sudoeste 10 Sudoeste 0 -- -- 72
2018-05-21 22:00:00 15.8 3 Sur 8 Sudoeste 0 -- -- 68
2018-05-21 21:00:00 16.7 4 Sudoeste 20 Oeste 0 -- -- 65
2018-05-21 20:00:00 18.1 8 Noroeste 17 Oeste 0 -- -- 61
2018-05-21 19:00:00 20.6 9 Sur 23 Sur 0 -- -- 50
2018-05-21 18:00:00 20.2 14 Sur 23 Sur 0 -- -- 53
2018-05-21 17:00:00 20.3 13 Sur 39 Sur 0 -- -- 56
2018-05-21 16:00:00 19.6 16 Sur 28 Sur 0 -- -- 54
2018-05-21 15:00:00 19.2 15 Sur 32 Sur 0 -- -- 57
2018-05-21 14:00:00 18.6 16 Sur 30 Sur 0 -- -- 54
2018-05-21 13:00:00 17.7 18 Sur 32 Sur 0 -- -- 61
2018-05-21 12:00:00 16.6 21 Sur 29 Sur 0 -- -- 63
2018-05-21 11:00:00 15.9 14 Sur 27 Sur 0 -- -- 70
2018-05-21 10:00:00 14.1 15 Sur 23 Sur 0 -- -- 80
2018-05-21 09:00:00 10.7 10 Sur 18 Sur 0 -- -- 95
2018-05-21 08:00:00 6.7 9 Sudeste 14 Sur 0 -- -- 96
2018-05-21 07:00:00 6.3 9 Sur 15 Sudeste 0 -- -- 96
2018-05-21 06:00:00 6.9 11 Sur 14 Sur 0 -- -- 96
2018-05-21 05:00:00 7.1 11 Sur 14 Sur 0 -- -- 96
2018-05-21 04:00:00 7 11 Sur 17 Sur 0 -- -- 96
2018-05-21 03:00:00 7.6 6 Sur 12 Sur 0 -- -- 96
2018-05-21 02:00:00 8 7 Sur 13 Sudeste 0 -- -- 95
2018-05-21 01:00:00 9.3 9 Sudeste 13 Sudeste 0 -- -- 94
2018-05-21 00:00:00 10.1 9 Sudeste 13 Sudeste 0 -- -- 93
2018-05-20 23:00:00 10.3 5 Sur 10 Sur 0 -- -- 94
2018-05-20 22:00:00 11.4 5 Sur 13 Oeste 0 -- -- 92
2018-05-20 21:00:00 12.2 7 Sur 19 Sur 0 -- -- 92
2018-05-20 20:00:00 12 9 Sur 17 Sur 0 -- -- 92
2018-05-20 19:00:00 11.5 13 Sur 30 Sur 0.8 -- -- 92
2018-05-20 18:00:00 10.7 12 Sur 29 Este 3.6 -- -- 92
2018-05-20 17:00:00 9.5 19 Este 45 Norte 16.2 -- -- 92
2018-05-20 16:00:00 15.4 18 Nordeste 32 Este 2.2 -- -- 70
2018-05-20 15:00:00 20.1 6 Sur 18 Sudoeste 0 -- -- 51
2018-05-20 14:00:00 19 10 Sudoeste 24 Sudoeste 0 -- -- 58
2018-05-20 13:00:00 16.5 13 Sur 19 Sudoeste 0.2 -- -- 70
2018-05-20 12:00:00 13.2 10 Sur 16 Sudeste 0 -- -- 94
2018-05-20 11:00:00 12.7 6 Sudeste 9 Sudeste 1.2 -- -- 94
2018-05-20 10:00:00 12.8 0 Calma 10 Sur 0 -- -- 94
2018-05-20 09:00:00 10.6 7 Sur 12 Sur 0 -- -- 95
2018-05-20 08:00:00 10.3 8 Sur 13 Sur 0 -- -- 93
2018-05-20 07:00:00 10.7 3 Sur 11 Sur 0 -- -- 90
2018-05-20 06:00:00 11.2 8 Sudeste 14 Sudeste 0 -- -- 89
2018-05-20 05:00:00 11 3 Sudeste 10 Sudeste 0 -- -- 91
2018-05-20 04:00:00 12 5 Sudeste 11 Nordeste 0 -- -- 89
2018-05-20 03:00:00 13.3 4 Sur 21 Norte 0.2 -- -- 83
2018-05-20 02:00:00 13.3 10 Sudoeste 21 Sudoeste 0 -- -- 82
2018-05-20 01:00:00 14 5 Nordeste 15 Oeste 0.8 -- -- 86
2018-05-20 00:00:00 15.2 8 Sur 12 Sudoeste 0 -- -- 80
2018-05-19 23:00:00 14.5 8 Sudoeste 13 Sudeste 0 -- -- 75
2018-05-19 22:00:00 16.1 9 Sudeste 19 Este 0 -- -- 70
2018-05-19 21:00:00 18.9 6 Sur 9 Sur 0 -- -- 61
2018-05-19 20:00:00 19.4 8 Sudoeste 18 Sudoeste 0 -- -- 55
2018-05-19 19:00:00 19.3 14 Sudoeste 23 Sur 0 -- -- 61
2018-05-19 18:00:00 18.4 13 Sur 24 Sur 0 -- -- 69
2018-05-19 17:00:00 17.9 17 Sur 27 Sudeste 0 -- -- 69
2018-05-19 16:00:00 18.8 15 Sudeste 29 Sudeste 0 -- -- 64
2018-05-19 15:00:00 20.4 8 Nordeste 21 Nordeste 0 -- -- 54
2018-05-19 14:00:00 20.1 9 Nordeste 23 Norte 0 -- -- 56
2018-05-19 13:00:00 19 15 Norte 31 Norte 0 -- -- 61
2018-05-19 12:00:00 17.5 10 Norte 17 Norte 0 -- -- 62
2018-05-19 11:00:00 15.7 4 Noroeste 9 Noroeste 0 -- -- 74
2018-05-19 10:00:00 12.5 5 Norte 10 Noroeste 0 -- -- 84
2018-05-19 09:00:00 9.4 4 Sudeste 14 Sur 0 -- -- 95
2018-05-19 08:00:00 6.4 10 Sur 13 Sur 0 -- -- 95
2018-05-19 07:00:00 6.2 9 Sur 12 Sur 0 -- -- 93
2018-05-19 06:00:00 7 9 Sur 12 Sur 0 -- -- 93
2018-05-19 05:00:00 7.6 6 Sur 12 Sur 0 -- -- 93
2018-05-19 04:00:00 8.3 9 Sur 12 Sur 0 -- -- 90
2018-05-19 03:00:00 8.7 9 Sur 15 Sudeste 0 -- -- 90
2018-05-19 02:00:00 9.7 8 Sur 14 Sur 0 -- -- 88
2018-05-19 01:00:00 10.8 5 Sur 13 Sur 0 -- -- 85
2018-05-19 00:00:00 11.7 2 Sudoeste 9 Norte 0 -- -- 81
2018-05-18 23:00:00 13 8 Sur 12 Sur 0 -- -- 77
2018-05-18 22:00:00 14.3 3 Sudoeste 14 Sur 0 -- -- 72
2018-05-18 21:00:00 17 6 Sur 22 Sudeste 0 -- -- 60
2018-05-18 20:00:00 18 14 Sur 24 Sur 0.2 -- -- 55
2018-05-18 19:00:00 18.5 12 Sur 22 Sur 0 -- -- 52
2018-05-18 18:00:00 18.2 13 Sudeste 26 Sur 0 -- -- 53
2018-05-18 17:00:00 18.4 8 Sudeste 19 Sur 0 -- -- 57
2018-05-18 16:00:00 18 11 Nordeste 24 Este 0 -- -- 59
2018-05-18 15:00:00 17.1 11 Sudeste 25 Sudeste 0 -- -- 63
2018-05-18 14:00:00 15.6 6 Este 19 Norte 0.6 -- -- 76
2018-05-18 13:00:00 15.1 10 Norte 16 Noroeste 0 -- -- 82
2018-05-18 12:00:00 14.1 8 Norte 15 Noroeste 0 -- -- 83
2018-05-18 11:00:00 11.6 2 Sudeste 14 Noroeste 0.4 -- -- 93
2018-05-18 10:00:00 10 9 Sudeste 14 Norte 1.8 -- -- 95
2018-05-18 09:00:00 10.1 7 Norte 12 Noroeste 0 -- -- 95
2018-05-18 08:00:00 8 3 Noroeste 7 Sur 0 -- -- 96
2018-05-18 07:00:00 7 8 Sur 10 Sur 0 -- -- 93
2018-05-18 06:00:00 7.5 9 Sur 13 Sur 0 -- -- 92
2018-05-18 05:00:00 8.3 3 Norte 9 Sur 0 -- -- 90
2018-05-18 04:00:00 8.6 6 Sur 11 Sur 0 -- -- 87
2018-05-18 03:00:00 9.6 3 Nordeste 10 Nordeste 0 -- -- 84
2018-05-18 02:00:00 10.1 5 Nordeste 22 Este 0 -- -- 87
2018-05-18 01:00:00 10.8 14 Este 32 Este 0 -- -- 86
2018-05-18 00:00:00 11.9 17 Nordeste 35 Nordeste 0 -- -- 87
2018-05-17 23:00:00 12.7 15 Norte 25 Norte 0 -- -- 87
2018-05-17 22:00:00 13 10 Sudeste 17 Norte 0.8 -- -- 85
2018-05-17 21:00:00 14.2 8 Nordeste 23 Oeste 1.2 -- -- 74
2018-05-17 20:00:00 15.7 16 Sudoeste 30 Sur 0.4 -- -- 71
2018-05-17 19:00:00 18.1 13 Sur 27 Sudeste 0 -- -- 59
2018-05-17 18:00:00 17.4 17 Sudeste 26 Oeste 0.6 -- -- 74
2018-05-17 17:00:00 17.9 20 Sudoeste 31 Sudoeste 0 -- -- 63
2018-05-17 16:00:00 21.7 6 Oeste 16 Sudoeste 0 -- -- 43
2018-05-17 15:00:00 22.4 7 Noroeste 20 Oeste 0 -- -- 43
2018-05-17 14:00:00 21 8 Noroeste 14 Norte 0 -- -- 52
2018-05-17 13:00:00 19.8 4 Este 12 Sudeste 0 -- -- 55
2018-05-17 12:00:00 17.1 4 Este 10 Norte 0 -- -- 63
2018-05-17 11:00:00 14 5 Noroeste 14 Norte 0 -- -- 74
2018-05-17 10:00:00 11.7 4 Norte 13 Norte 0 -- -- 79
2018-05-17 09:00:00 10.3 10 Norte 18 Norte 0 -- -- 83
2018-05-17 08:00:00 8.6 6 Noroeste 10 Noroeste 0 -- -- 87
2018-05-17 07:00:00 7.5 2 Oeste 9 Noroeste 0 -- -- 86
2018-05-17 06:00:00 9.7 3 Norte 10 Norte 0 -- -- 78
2018-05-17 05:00:00 10.5 5 Norte 10 Norte 0 -- -- 74
2018-05-17 04:00:00 11.4 2 Norte 11 Norte 0 -- -- 69
2018-05-17 03:00:00 11.5 3 Nordeste 11 Sudeste 0 -- -- 68
2018-05-17 02:00:00 13 5 Este 10 Este 0 -- -- 60
2018-05-17 01:00:00 14.3 2 Norte 6 Nordeste 0 -- -- 56
2018-05-17 00:00:00 15.4 0 Calma 5 Noroeste 0 -- -- 53
2018-05-16 23:00:00 16.1 2 Norte 5 Norte 0 -- -- 52
2018-05-16 22:00:00 18.3 3 Nordeste 13 Norte 0 -- -- 47
2018-05-16 21:00:00 20.4 10 Norte 21 Norte 0 -- -- 42
2018-05-16 20:00:00 21.8 13 Norte 29 Norte 0 -- -- 38
2018-05-16 19:00:00 22.4 15 Norte 28 Norte 0 -- -- 38
2018-05-16 18:00:00 22.1 14 Norte 31 Norte 0 -- -- 40
2018-05-16 17:00:00 22.1 12 Norte 29 Norte 0 -- -- 40
2018-05-16 16:00:00 21.2 16 Norte 29 Nordeste 0 -- -- 44
2018-05-16 15:00:00 20.6 15 Norte 31 Norte 0 -- -- 48
2018-05-16 14:00:00 19.1 19 Norte 31 Norte 0 -- -- 47
2018-05-16 13:00:00 17.6 16 Norte 30 Nordeste 0 -- -- 52
2018-05-16 12:00:00 15.3 16 Norte 28 Norte 0 -- -- 53
2018-05-16 11:00:00 13.1 13 Norte 21 Noroeste 0 -- -- 58
2018-05-16 10:00:00 10.7 10 Norte 17 Nordeste 0 -- -- 65
2018-05-16 09:00:00 8.6 10 Norte 14 Norte 0 -- -- 75
2018-05-16 08:00:00 6.6 3 Norte 9 Noroeste 0 -- -- 79
2018-05-16 07:00:00 6.6 8 Norte 12 Noroeste 0 -- -- 84
2018-05-16 06:00:00 7.6 5 Noroeste 15 Norte 0 -- -- 82
2018-05-16 05:00:00 8.7 11 Norte 22 Norte 0 -- -- 79
2018-05-16 04:00:00 9.3 10 Norte 15 Norte 0 -- -- 77
2018-05-16 03:00:00 10.6 8 Norte 10 Norte 0 -- -- 68
2018-05-16 02:00:00 11.1 2 Este 14 Este 0 -- -- 65
2018-05-16 01:00:00 13.3 11 Este 18 Nordeste 0 -- -- 58
2018-05-16 00:00:00 13.3 9 Nordeste 13 Este 0 -- -- 58
2018-05-15 23:00:00 14.4 8 Nordeste 12 Norte 0 -- -- 53
2018-05-15 22:00:00 16.1 6 Nordeste 15 Norte 0 -- -- 49
2018-05-15 21:00:00 18.5 9 Norte 24 Norte 0 -- -- 44
2018-05-15 20:00:00 19.7 15 Nordeste 34 Nordeste 0 -- -- 40
2018-05-15 19:00:00 20.2 17 Nordeste 30 Nordeste 0 -- -- 41
2018-05-15 18:00:00 20.3 17 Nordeste 33 Norte 0 -- -- 37
2018-05-15 17:00:00 20.1 20 Norte 37 Norte 0 -- -- 38
2018-05-15 16:00:00 19.1 20 Nordeste 36 Nordeste 0 -- -- 37
2018-05-15 15:00:00 18.1 19 Norte 36 Norte 0 -- -- 36
2018-05-15 14:00:00 16.9 23 Norte 36 Nordeste 0 -- -- 35
2018-05-15 13:00:00 16.3 21 Norte 34 Norte 0 -- -- 35
2018-05-15 12:00:00 14.9 19 Norte 33 Norte 0 -- -- 35
2018-05-15 11:00:00 13.2 17 Nordeste 36 Nordeste 0 -- -- 38
2018-05-15 10:00:00 11 15 Norte 22 Norte 0 -- -- 45
2018-05-15 09:00:00 6.7 10 Norte 18 Norte 0 -- -- 66
2018-05-15 08:00:00 4.3 3 Noroeste 9 Oeste 0 -- -- 72
2018-05-15 07:00:00 4.7 4 Norte 15 Norte 0 -- -- 67
2018-05-15 06:00:00 5.5 9 Norte 17 Nordeste 0 -- -- 68
2018-05-15 05:00:00 5.8 8 Norte 14 Norte 0 -- -- 80
2018-05-15 04:00:00 6.5 9 Norte 15 Norte 0 -- -- 80
2018-05-15 03:00:00 7.5 9 Norte 14 Norte 0 -- -- 76
2018-05-15 02:00:00 8.7 7 Norte 11 Norte 0 -- -- 72
2018-05-15 01:00:00 10.1 5 Nordeste 18 Nordeste 0 -- -- 65
2018-05-15 00:00:00 10.8 12 Este 18 Nordeste 0 -- -- 64
2018-05-14 23:00:00 12.2 10 Nordeste 15 Este 0 -- -- 60
2018-05-14 22:00:00 13.3 8 Nordeste 20 Nordeste 0 -- -- 57
2018-05-14 21:00:00 15.6 13 Norte 32 Norte 0 -- -- 53
2018-05-14 20:00:00 16.9 19 Norte 30 Norte 0 -- -- 52
2018-05-14 19:00:00 16.2 14 Norte 27 Nordeste 0 -- -- 57
2018-05-14 18:00:00 15.4 13 Norte 29 Nordeste 0 -- -- 64
2018-05-14 17:00:00 16.5 15 Nordeste 27 Norte 0 -- -- 59
2018-05-14 16:00:00 14.8 15 Norte 34 Norte 0 -- -- 67
2018-05-14 15:00:00 16.1 22 Norte 34 Norte 0 -- -- 63
2018-05-14 14:00:00 14.6 21 Norte 36 Nordeste 0 -- -- 66
2018-05-14 13:00:00 13 16 Norte 30 Noroeste 0 -- -- 72
2018-05-14 12:00:00 12 14 Norte 26 Norte 0 -- -- 80
2018-05-14 11:00:00 10 15 Norte 26 Noroeste 0 -- -- 84
2018-05-14 10:00:00 8.7 12 Noroeste 21 Noroeste 0 -- -- 87
2018-05-14 09:00:00 7.7 7 Noroeste 10 Noroeste 0 -- -- 88
2018-05-14 08:00:00 6.7 4 Norte 13 Norte 0 -- -- 90
2018-05-14 07:00:00 6.6 8 Norte 10 Norte 0 -- -- 90
2018-05-14 06:00:00 6.2 8 Noroeste 10 Noroeste 0 -- -- 91
2018-05-14 05:00:00 5.8 7 Norte 13 Norte 0 -- -- 91
2018-05-14 04:00:00 5.3 8 Norte 12 Norte 0 -- -- 90
2018-05-14 03:00:00 5.6 9 Norte 13 Norte 0 -- -- 89
2018-05-14 02:00:00 6 8 Norte 15 Noroeste 0 -- -- 87
2018-05-14 01:00:00 6.9 12 Noroeste 20 Noroeste 0 -- -- 84
2018-05-11 20:00:00 -- -- -- -- -- -- -- -- --
2018-05-11 19:00:00 19.2 18 Sudoeste 29 Sudoeste 0 -- -- 55
2018-05-11 18:00:00 19.6 17 Sudoeste 31 Sur 0 -- -- 56
2018-05-11 17:00:00 19.7 19 Sur 37 Sur 0 -- -- 50
2018-05-11 16:00:00 19.8 22 Sur 44 Sur 0 -- -- 57
2018-05-11 15:00:00 19.8 23 Sur 37 Sur 0 -- -- 57
2018-05-11 14:00:00 19.1 24 Sur 36 Sur 0 -- -- 61
2018-05-11 13:00:00 17.8 20 Sudoeste 38 Sudoeste 0 -- -- 66
2018-05-11 12:00:00 18.9 24 Sur 36 Sur 0 -- -- 63
2018-05-11 11:00:00 17.4 18 Sudoeste 28 Sur 0 -- -- 70
2018-05-11 10:00:00 14.9 7 Sur 13 Sur 0 -- -- 84
2018-05-11 09:00:00 11.7 4 Sudoeste 11 Sur 0 -- -- 94
2018-05-11 08:00:00 8.9 8 Sur 14 Sur 0 -- -- 94
2018-05-11 07:00:00 9.1 9 Sur 14 Sur 0 -- -- 92
2018-05-11 06:00:00 9.3 9 Sur 13 Sur 0 -- -- 92
2018-05-11 05:00:00 9.5 8 Sur 14 Sur 0 -- -- 93
2018-05-11 04:00:00 10.5 9 Sur 12 Sur 0 -- -- 91
2018-05-11 03:00:00 11.4 7 Sur 12 Sudoeste 0 -- -- 86
2018-05-11 02:00:00 11.8 9 Sur 12 Sur 0 -- -- 85
2018-05-11 01:00:00 12.7 9 Sur 11 Sur 0 -- -- 81
2018-05-11 00:00:00 14.3 2 Sur 9 Sudeste 0 -- -- 66
2018-05-10 23:00:00 14.8 5 Sudeste 8 Sur 0 -- -- 64
2018-05-10 22:00:00 16.9 2 Sudeste 9 Norte 0 -- -- 61
2018-05-10 21:00:00 19.3 6 Nordeste 17 Norte 0 -- -- 51
2018-05-10 20:00:00 20.5 8 Norte 16 Norte 0 -- -- 51
2018-05-10 19:00:00 21.1 6 Norte 17 Nordeste 0 -- -- 49
2018-05-10 18:00:00 20.9 10 Nordeste 20 Nordeste 0 -- -- 49
2018-05-10 17:00:00 20.4 12 Noroeste 24 Norte 0 -- -- 54
2018-05-10 16:00:00 19.8 14 Norte 28 Norte 0 -- -- 53
2018-05-10 15:00:00 19.3 18 Norte 27 Norte 0 -- -- 55
2018-05-10 14:00:00 18.9 16 Norte 27 Nordeste 0 -- -- 56
2018-05-10 13:00:00 17.8 16 Norte 32 Nordeste 0 -- -- 58
2018-05-10 12:00:00 16.4 21 Norte 34 Nordeste 0 -- -- 56
2018-05-10 11:00:00 15.1 18 Nordeste 33 Nordeste 0 -- -- 62
2018-05-10 10:00:00 12 15 Norte 24 Nordeste 0 -- -- 90
2018-05-10 09:00:00 9 12 Norte 17 Nordeste 0 -- -- 95
2018-05-10 08:00:00 7.9 7 Norte 12 Norte 0 -- -- 97
2018-05-10 07:00:00 7.9 9 Norte 13 Norte 0 -- -- 96
2018-05-10 06:00:00 8.7 8 Norte 17 Noroeste 0 -- -- 96
2018-05-10 05:00:00 9.2 8 Norte 14 Norte 0 -- -- 95
2018-05-10 04:00:00 9.3 3 Noroeste 8 Noroeste 0 -- -- 94
2018-05-10 03:00:00 9.5 5 Norte 8 Norte 0 -- -- 93
2018-05-10 02:00:00 9.9 0 Calma 12 Noroeste 0 -- -- 91
2018-05-10 01:00:00 10.5 9 Noroeste 12 Noroeste 0 -- -- 90
2018-05-10 00:00:00 11.5 5 Oeste 10 Oeste 0 -- -- 86
2018-05-09 23:00:00 12 5 Oeste 16 Noroeste 0 -- -- 84
2018-05-09 22:00:00 12.5 13 Noroeste 27 Noroeste 0 -- -- 82
2018-05-09 21:00:00 13.8 18 Norte 32 Noroeste 0 -- -- 78
2018-05-09 20:00:00 15.1 20 Noroeste 32 Noroeste 0 -- -- 77
2018-05-09 19:00:00 18.4 19 Noroeste 26 Noroeste 0 -- -- 68
2018-05-09 18:00:00 20.1 18 Noroeste 28 Noroeste 0 -- -- 59
2018-05-09 17:00:00 20.5 9 Noroeste 19 Noroeste 0 -- -- 60
2018-05-09 16:00:00 19.5 7 Nordeste 20 Norte 0 -- -- 68
2018-05-09 15:00:00 18.5 8 Nordeste 15 Nordeste 0 -- -- 73
2018-05-09 14:00:00 16.6 5 Nordeste 12 Nordeste 0 -- -- 78
2018-05-09 13:00:00 14.4 6 Norte 13 Norte 0 -- -- 91
2018-05-09 12:00:00 12.7 6 Norte 13 Noroeste 0 -- -- 96
2018-05-09 11:00:00 11.7 5 Norte 10 Noroeste 0 -- -- 98
2018-05-09 10:00:00 10.5 4 Norte 8 Noroeste 0 -- -- 99
2018-05-09 09:00:00 9.1 0 Calma 6 Sudeste 0 -- -- 99
2018-05-09 08:00:00 7.6 5 Sudeste 9 Sudeste 0 -- -- 97
2018-05-09 07:00:00 9.1 3 Sur 7 Sur 0 -- -- 97
2018-05-09 06:00:00 9.1 6 Sur 12 Sur 0 -- -- 97
2018-05-09 05:00:00 9.2 9 Sur 12 Sur 0 -- -- 96
2018-05-09 04:00:00 10.8 5 Sur 8 Sur 0 -- -- 95
2018-05-09 03:00:00 11.6 6 Sudeste 10 Sur 0 -- -- 94
2018-05-09 02:00:00 12.7 4 Norte 9 Norte 0 -- -- 93
2018-05-09 01:00:00 13.4 6 Noroeste 12 Oeste 0 -- -- 92
2018-05-09 00:00:00 14.1 8 Sudoeste 12 Oeste 0 -- -- 88
2018-05-08 23:00:00 15.3 4 Oeste 10 Sudoeste 0 -- -- 83
2018-05-08 22:00:00 16.6 10 Este 23 Este 0 -- -- 77
2018-05-08 21:00:00 18.9 17 Noroeste 35 Oeste 0 -- -- 73
2018-05-08 20:00:00 21.1 20 Oeste 30 Oeste 0 -- -- 63
2018-05-08 19:00:00 19.9 18 Sur 27 Sudoeste 0 -- -- 66
2018-05-08 18:00:00 21.1 13 Sudoeste 24 Sudoeste 0 -- -- 66
2018-05-08 17:00:00 22.9 14 Noroeste 29 Norte 0 -- -- 54
2018-05-08 16:00:00 21.8 14 Noroeste 21 Norte 0 -- -- 58
2018-05-08 15:00:00 22.5 11 Norte 18 Norte 0 -- -- 57
2018-05-08 14:00:00 21.7 9 Noroeste 19 Norte 0 -- -- 60
2018-05-08 13:00:00 20.5 8 Norte 15 Noroeste 0 -- -- 64
2018-05-08 12:00:00 19.1 8 Noroeste 13 Nordeste 0 -- -- 71
2018-05-08 11:00:00 18 8 Norte 13 Norte 0 -- -- 77
2018-05-08 10:00:00 16.6 3 Sudeste 7 Nordeste 0 -- -- 86
2018-05-08 09:00:00 13 4 Sur 8 Sudeste 0 -- -- 95
2018-05-08 08:00:00 11.1 6 Sudeste 9 Sudeste 0 -- -- 95
2018-05-08 07:00:00 11 6 Sudeste 13 Sudeste 0 -- -- 95
2018-05-08 06:00:00 11 8 Sur 10 Sudeste 0 -- -- 94
2018-05-08 05:00:00 11.9 0 Calma 6 Sudoeste 0 -- -- 90
2018-05-08 04:00:00 11.6 4 Sudoeste 10 Sur 0 -- -- 90
2018-05-08 03:00:00 11.8 5 Sur 10 Sudeste 0 -- -- 91
2018-05-08 02:00:00 12.4 7 Sur 18 Este 0 -- -- 91
2018-05-08 01:00:00 12.6 5 Sur 10 Sudeste 0 -- -- 89
2018-05-08 00:00:00 13.8 3 Sur 15 Sudeste 0 -- -- 84
2018-05-07 23:00:00 14.1 13 Este 19 Oeste 0 -- -- 83
2018-05-07 22:00:00 15 15 Oeste 27 Oeste 0 -- -- 77
2018-05-07 21:00:00 15.5 18 Oeste 27 Oeste 0 -- -- 77
2018-05-07 20:00:00 16.6 10 Sudoeste 25 Sur 0 -- -- 75
2018-05-07 19:00:00 15.7 18 Sur 30 Sudeste 1 -- -- 84
2018-05-07 18:00:00 15.6 12 Sur 50 Sudeste 7 -- -- 83
2018-05-07 17:00:00 22.4 6 Oeste 21 Sudoeste 0 -- -- 52
2018-05-07 16:00:00 22.8 8 Sudeste 23 Sudeste 0 -- -- 50
2018-05-07 15:00:00 21.5 14 Sudeste 21 Sudeste 0 -- -- 57
2018-05-07 14:00:00 20.9 8 Nordeste 20 Norte 0 -- -- 56
2018-05-07 13:00:00 20.5 8 Norte 14 Norte 0 -- -- 58
2018-05-07 12:00:00 18.8 4 Norte 11 Norte 0 -- -- 65
2018-05-07 11:00:00 17 7 Norte 10 Norte 0 -- -- 78
2018-05-07 10:00:00 15 0 Calma 13 Sur 0 -- -- 86
2018-05-07 09:00:00 11.2 11 Sur 14 Sur 0 -- -- 90
2018-05-07 08:00:00 8.3 10 Sur 14 Sur 0 -- -- 93
2018-05-07 07:00:00 8.6 10 Sur 13 Sudeste 0 -- -- 92
2018-05-07 06:00:00 7.8 11 Sur 18 Sur 0 -- -- 96
2018-05-07 05:00:00 8.5 9 Sur 19 Sur 0 -- -- 96
2018-05-07 04:00:00 9.3 9 Sur 14 Sudeste 0 -- -- 94
2018-05-07 03:00:00 10.3 8 Sur 14 Sur 0 -- -- 95
2018-05-07 02:00:00 10.7 8 Sur 14 Sur 0 -- -- 94
2018-05-07 01:00:00 12.1 0 Calma 13 Nordeste 0 -- -- 95
2018-05-07 00:00:00 12.4 8 Sur 16 Sudeste 0 -- -- 95
2018-05-06 23:00:00 13 6 Sur 12 Sudeste 0 -- -- 87
2018-05-06 22:00:00 13.5 5 Sur 11 Sur 0 -- -- 87
2018-05-06 21:00:00 15 6 Sur 12 Sur 0 -- -- 83
2018-05-06 20:00:00 14.6 4 Sudeste 19 Este 0 -- -- 83
2018-05-06 19:00:00 14.7 6 Sudeste 17 Este 0 -- -- 88
2018-05-06 18:00:00 15.1 7 Sur 26 Sudeste 0 -- -- 85
2018-05-06 17:00:00 14.9 12 Sudeste 36 Sudeste 7.8 -- -- 85
2018-05-06 16:00:00 16.9 17 Sudeste 27 Sudeste 2 -- -- 69
2018-05-06 15:00:00 19.5 9 Sur 25 Sur 0 -- -- 55
2018-05-06 14:00:00 20.2 18 Sudoeste 32 Sudoeste 0 -- -- 57
2018-05-06 13:00:00 19.6 14 Sur 24 Sur 0 -- -- 61
2018-05-06 12:00:00 18.1 11 Sur 19 Sur 0 -- -- 63
2018-05-06 11:00:00 15 5 Norte 10 Norte 0 -- -- 78
2018-05-06 10:00:00 12.6 3 Noroeste 6 Noroeste 0 -- -- 85
2018-05-06 09:00:00 9.3 4 Sudeste 9 Sur 0 -- -- 93
2018-05-06 08:00:00 7.2 6 Sudeste 10 Sur 0 -- -- 92
2018-05-06 07:00:00 6.8 2 Oeste 15 Sudeste 0 -- -- 92
2018-05-06 06:00:00 7.4 8 Sur 10 Sur 0 -- -- 90
2018-05-06 05:00:00 7.9 6 Sur 12 Sur 0 -- -- 90
2018-05-06 04:00:00 8.8 7 Sudeste 12 Sudeste 0 -- -- 87
2018-05-06 03:00:00 9.3 3 Sur 8 Sur 0 -- -- 86
2018-05-06 02:00:00 10.2 6 Sur 9 Sur 0 -- -- 82
2018-05-06 01:00:00 11.4 2 Oeste 12 Sudeste 0 -- -- 77
2018-05-06 00:00:00 13.4 8 Este 12 Este 0 -- -- 70
2018-05-05 23:00:00 14.1 2 Norte 9 Nordeste 0 -- -- 67
2018-05-05 22:00:00 15.6 4 Norte 14 Norte 0 -- -- 62
2018-05-05 21:00:00 17.7 10 Norte 20 Norte 0 -- -- 56
2018-05-05 20:00:00 19.2 13 Norte 21 Norte 0 -- -- 51
2018-05-05 19:00:00 20.2 10 Norte 19 Norte 0 -- -- 44
2018-05-05 18:00:00 20.2 12 Norte 19 Norte 0 -- -- 47
2018-05-05 17:00:00 20 8 Nordeste 18 Norte 0 -- -- 46
2018-05-05 16:00:00 19.3 9 Norte 20 Norte 0 -- -- 47
2018-05-05 15:00:00 18.3 9 Norte 18 Norte 0 -- -- 53
2018-05-05 14:00:00 16.5 11 Norte 21 Nordeste 0 -- -- 61
2018-05-05 13:00:00 14.5 11 Norte 17 Norte 0 -- -- 69
2018-05-05 12:00:00 12.5 8 Norte 15 Norte 0 -- -- 72
2018-05-05 11:00:00 10.1 6 Norte 12 Norte 0 -- -- 79
2018-05-05 10:00:00 8.2 4 Noroeste 9 Norte 0 -- -- 87
2018-05-05 09:00:00 5.6 4 Oeste 7 Sudoeste 0 -- -- 94
2018-05-05 08:00:00 3.2 4 Sudoeste 6 Oeste 0 -- -- 93
2018-05-05 07:00:00 3.8 5 Noroeste 8 Noroeste 0 -- -- 92
2018-05-05 06:00:00 4.6 3 Norte 9 Noroeste 0 -- -- 90
2018-05-05 05:00:00 5.3 0 Calma 10 Norte 0 -- -- 87
2018-05-05 04:00:00 6 7 Norte 14 Norte 0 -- -- 86
2018-05-05 03:00:00 7.1 9 Norte 17 Norte 0 -- -- 82
2018-05-05 02:00:00 7.9 12 Norte 17 Norte 0 -- -- 79
2018-05-05 01:00:00 8.4 7 Norte 13 Norte 0 -- -- 76
2018-05-05 00:00:00 9.3 9 Norte 18 Norte 0 -- -- 72
2018-05-04 23:00:00 10.9 11 Nordeste 21 Norte 0 -- -- 65
2018-05-04 22:00:00 11.7 10 Nordeste 17 Norte 0 -- -- 62
2018-05-04 21:00:00 13.8 13 Norte 31 Nordeste 0 -- -- 56
2018-05-04 20:00:00 15.4 17 Norte 32 Nordeste 0 -- -- 50
2018-05-04 19:00:00 15.9 21 Nordeste 39 Nordeste 0 -- -- 48
2018-05-04 18:00:00 16 21 Nordeste 38 Norte 0 -- -- 50
2018-05-04 17:00:00 15.6 18 Nordeste 39 Norte 0 -- -- 50
2018-05-04 16:00:00 14.7 24 Norte 45 Nordeste 0 -- -- 49
2018-05-04 15:00:00 13.5 26 Nordeste 42 Norte 0 -- -- 52
2018-05-04 14:00:00 12.2 24 Norte 44 Norte 0 -- -- 54
2018-05-04 13:00:00 10.8 23 Nordeste 46 Nordeste 0 -- -- 57
2018-05-04 12:00:00 9.4 24 Nordeste 41 Norte 0 -- -- 60
2018-05-04 11:00:00 8.1 19 Nordeste 33 Nordeste 0 -- -- 65
2018-05-04 10:00:00 6.4 19 Nordeste 43 Nordeste 0 -- -- 71
2018-05-04 09:00:00 4.8 16 Nordeste 36 Nordeste 0 -- -- 78
2018-05-04 08:00:00 2.9 9 Nordeste 21 Este 0 -- -- 82
2018-05-04 07:00:00 2.8 12 Norte 29 Nordeste 0 -- -- 82
2018-05-04 06:00:00 3.2 13 Norte 18 Norte 0 -- -- 82
2018-05-04 05:00:00 3.7 12 Norte 21 Norte 0 -- -- 79
2018-05-04 04:00:00 4.4 10 Norte 22 Norte 0 -- -- 77
2018-05-04 03:00:00 5.9 13 Nordeste 23 Nordeste 0 -- -- 71
2018-05-04 02:00:00 6.3 10 Norte 23 Nordeste 0 -- -- 72
2018-05-04 01:00:00 7.9 11 Nordeste 26 Nordeste 0 -- -- 66
2018-05-04 00:00:00 8.8 12 Nordeste 25 Nordeste 0 -- -- 66
2018-05-03 23:00:00 10.4 15 Nordeste 25 Nordeste 0 -- -- 60
2018-05-03 22:00:00 11.2 13 Nordeste 24 Nordeste 0 -- -- 56
2018-05-03 21:00:00 12.9 18 Nordeste 33 Nordeste 0 -- -- 50
2018-05-03 20:00:00 14.7 18 Nordeste 34 Nordeste 0 -- -- 52
2018-05-03 19:00:00 14.6 20 Nordeste 36 Norte 0 -- -- 51
2018-05-03 18:00:00 14.8 14 Norte 29 Nordeste 0 -- -- 52
2018-05-03 17:00:00 15.4 18 Norte 34 Norte 0 -- -- 54
2018-05-03 16:00:00 14.7 17 Norte 30 Norte 0 -- -- 59
2018-05-03 15:00:00 13.9 16 Norte 27 Nordeste 0 -- -- 63
2018-05-03 14:00:00 13.3 12 Norte 19 Norte 0 -- -- 68
2018-05-03 13:00:00 12.1 9 Norte 16 Norte 0 -- -- 78
2018-05-03 12:00:00 10 8 Norte 15 Noroeste 0 -- -- 84
2018-05-03 11:00:00 10 7 Norte 15 Noroeste 0 -- -- 88
2018-05-03 10:00:00 8.8 9 Noroeste 13 Norte 0 -- -- 90
2018-05-03 09:00:00 8.3 8 Norte 13 Noroeste 0 -- -- 91
2018-05-03 08:00:00 8.2 6 Norte 19 Noroeste 0 -- -- 91
2018-05-03 07:00:00 8.3 11 Noroeste 15 Noroeste 0 -- -- 91
2018-05-03 06:00:00 8.3 8 Norte 13 Noroeste 0 -- -- 90
2018-05-03 05:00:00 8.4 5 Noroeste 8 Noroeste 0 -- -- 91
2018-05-03 04:00:00 7.9 4 Noroeste 7 Norte 0 -- -- 91
2018-05-03 03:00:00 7.8 5 Noroeste 12 Norte 0 -- -- 89
2018-05-03 02:00:00 8.6 8 Noroeste 13 Norte 0 -- -- 87
2018-05-03 01:00:00 9.5 8 Noroeste 13 Noroeste 0 -- -- 84
2018-05-03 00:00:00 9.7 8 Norte 15 Noroeste 0 -- -- 82
2018-05-02 23:00:00 9.5 5 Norte 11 Noroeste 0 -- -- 80
2018-05-02 22:00:00 10.2 6 Norte 22 Norte 0 -- -- 75
2018-05-02 21:00:00 12 15 Noroeste 26 Noroeste 0 -- -- 68
2018-05-02 20:00:00 12.8 17 Noroeste 25 Norte 0 -- -- 65
2018-05-02 19:00:00 13.6 11 Norte 23 Noroeste 0 -- -- 61
2018-05-02 18:00:00 13.8 14 Norte 25 Noroeste 0 -- -- 60
2018-05-02 17:00:00 13.5 17 Noroeste 28 Noroeste 0 -- -- 61
2018-05-02 16:00:00 14.2 6 Norte 15 Nordeste 0 -- -- 51
2018-05-02 15:00:00 13.7 6 Nordeste 17 Noroeste 0 -- -- 54
2018-05-02 14:00:00 12.2 6 Sudoeste 21 Oeste 0 -- -- 54
2018-05-02 13:00:00 10.7 9 Oeste 14 Oeste 0 -- -- 53
2018-05-02 12:00:00 9.3 5 Noroeste 11 Norte 0 -- -- 62
2018-05-02 11:00:00 8.4 4 Norte 12 Nordeste 0 -- -- 68
2018-05-02 10:00:00 6.7 2 Oeste 8 Este 0 -- -- 75
2018-05-02 09:00:00 4.8 5 Este 9 Este 0 -- -- 86
2018-05-02 08:00:00 2.6 4 Sudeste 8 Sudeste 0 -- -- 87
2018-05-02 07:00:00 3.1 3 Sudeste 6 Nordeste 0 -- -- 85
2018-05-02 06:00:00 3.3 3 Norte 9 Norte 0 -- -- 81
2018-05-02 05:00:00 2.6 4 Norte 6 Norte 0 -- -- 83
2018-05-02 04:00:00 2.8 4 Este 11 Este 0 -- -- 81
2018-05-02 03:00:00 3.5 5 Este 8 Este 0 -- -- 74
2018-05-02 02:00:00 3.9 4 Nordeste 6 Nordeste 0 -- -- 72
2018-05-02 01:00:00 4.9 4 Este 10 Norte 0 -- -- 69
2018-05-02 00:00:00 6.2 10 Noroeste 19 Noroeste 0 -- -- 67
2018-05-01 23:00:00 8.5 15 Oeste 24 Noroeste 0 -- -- 62
2018-05-01 22:00:00 10.2 14 Noroeste 24 Noroeste 0 -- -- 56
2018-05-01 21:00:00 11.1 10 Noroeste 15 Noroeste 0 -- -- 52
2018-05-01 20:00:00 12.1 4 Nordeste 15 Nordeste 0 -- -- 46
2018-05-01 19:00:00 13.3 10 Nordeste 17 Nordeste 0 -- -- 44
2018-05-01 18:00:00 12.7 8 Nordeste 18 Norte 0 -- -- 46
2018-05-01 17:00:00 11.6 7 Nordeste 21 Nordeste 0 -- -- 45
2018-05-01 16:00:00 13 12 Norte 22 Nordeste 0 -- -- 47
2018-05-01 15:00:00 10.7 9 Norte 24 Norte 0 -- -- 53
2018-05-01 14:00:00 11.1 11 Norte 23 Noroeste 0 -- -- 55
2018-05-01 13:00:00 10.5 10 Norte 23 Norte 0 -- -- 60
2018-05-01 12:00:00 8.5 10 Norte 16 Norte 0 -- -- 76
2018-05-01 11:00:00 6.2 7 Norte 12 Norte 0 -- -- 94
2018-05-01 10:00:00 4.3 8 Norte 12 Noroeste 0 -- -- 96
2018-05-01 09:00:00 2.1 0 Calma 5 Nordeste 0 -- -- 97
2018-05-01 08:00:00 1.9 3 Norte 6 Norte 0 -- -- 95
2018-05-01 07:00:00 2.1 3 Norte 5 Noroeste 0 -- -- 95
2018-05-01 06:00:00 2.2 4 Noroeste 5 Norte 0 -- -- 94
2018-05-01 05:00:00 2.8 4 Norte 7 Noroeste 0 -- -- 93
2018-05-01 04:00:00 2.4 2 Norte 6 Norte 0 -- -- 90
2018-05-01 03:00:00 3.6 5 Norte 6 Norte 0 -- -- 89
2018-05-01 02:00:00 4.1 0 Calma 5 Sudoeste 0 -- -- 89
2018-05-01 01:00:00 4.7 2 Sudoeste 10 Norte 0 -- -- 90
2018-05-01 00:00:00 4.8 6 Noroeste 20 Este 0.2 -- -- 89
2018-04-30 23:00:00 5.5 13 Este 28 Nordeste 0 -- -- 85
2018-04-30 22:00:00 7.1 6 Noroeste 22 Noroeste 0 -- -- 72
2018-04-30 21:00:00 8.3 14 Norte 22 Norte 0 -- -- 67
2018-04-30 20:00:00 10.1 7 Oeste 28 Noroeste 0 -- -- 56
2018-04-30 19:00:00 10.9 18 Noroeste 29 Noroeste 0 -- -- 56
2018-04-30 18:00:00 11.3 9 Noroeste 20 Nordeste 0 -- -- 57
2018-04-30 17:00:00 11 13 Oeste 22 Oeste 0 -- -- 53
2018-04-30 16:00:00 10.3 10 Oeste 22 Noroeste 0 -- -- 54
2018-04-30 15:00:00 9.1 12 Noroeste 26 Sudoeste 0 -- -- 60
2018-04-30 14:00:00 8.4 9 Sudoeste 15 Oeste 0 -- -- 65
2018-04-30 13:00:00 7.3 11 Noroeste 18 Noroeste 0 -- -- 66
2018-04-30 12:00:00 6.6 11 Oeste 18 Oeste 0 -- -- 68
2018-04-30 11:00:00 5.5 13 Oeste 19 Oeste 0 -- -- 80
2018-04-30 10:00:00 4.7 8 Oeste 14 Oeste 0 -- -- 89
2018-04-30 09:00:00 3 7 Sudoeste 12 Sudoeste 0 -- -- 94
2018-04-30 08:00:00 2 7 Sur 10 Sur 0 -- -- 94
2018-04-30 07:00:00 1.5 3 Sudeste 12 Sur 0 -- -- 94
2018-04-30 06:00:00 1.1 9 Sur 12 Sur 0 -- -- 94
2018-04-30 05:00:00 0.8 7 Sudeste 10 Sur 0 -- -- 92
2018-04-30 04:00:00 1.1 6 Sur 10 Sur 0 -- -- 90
2018-04-30 03:00:00 1.6 3 Sudeste 10 Sudeste 0 -- -- 89
2018-04-30 02:00:00 1.5 7 Sudeste 12 Sudeste 0 -- -- 87
2018-04-30 01:00:00 2.4 6 Noroeste 12 Sudoeste 0 -- -- 83
2018-04-30 00:00:00 3.4 6 Oeste 25 Sudoeste 0 -- -- 81
2018-04-29 23:00:00 4 13 Sudoeste 20 Sudoeste 0 -- -- 80
2018-04-29 22:00:00 5.3 11 Sudoeste 18 Sudoeste 0 -- -- 76
2018-04-29 21:00:00 5.6 13 Sudoeste 26 Oeste 0 -- -- 71
2018-04-29 20:00:00 7.4 16 Oeste 33 Sudoeste 0 -- -- 63
2018-04-29 19:00:00 8.1 22 Noroeste 47 Noroeste 0 -- -- 66
2018-04-29 18:00:00 7.7 26 Oeste 48 Oeste 0 -- -- 65
2018-04-29 17:00:00 8.2 18 Oeste 45 Oeste 0 -- -- 74
2018-04-29 16:00:00 6.9 27 Oeste 44 Oeste 0 -- -- 73
2018-04-29 15:00:00 7.5 22 Oeste 51 Oeste 0 -- -- 75
2018-04-29 14:00:00 8.8 21 Sudoeste 36 Sur 0 -- -- 71
2018-04-29 13:00:00 8.6 21 Oeste 37 Oeste 0.2 -- -- 66
2018-04-29 12:00:00 6.9 19 Oeste 32 Oeste 0 -- -- 84
2018-04-29 11:00:00 5.9 17 Oeste 35 Oeste 0.2 -- -- 85
2018-04-29 10:00:00 5.1 14 Oeste 22 Sudoeste 0 -- -- 91
2018-04-29 09:00:00 4.4 14 Oeste 21 Oeste 0 -- -- 95
2018-04-29 08:00:00 4 11 Oeste 21 Oeste 0 -- -- 95
2018-04-29 07:00:00 3.8 16 Oeste 24 Oeste 0 -- -- 95
2018-04-29 06:00:00 3.5 9 Oeste 15 Sudoeste 0.4 -- -- 95
2018-04-29 05:00:00 3 11 Oeste 22 Oeste 1 -- -- 94
2018-04-29 04:00:00 3.6 13 Oeste 23 Oeste 0.8 -- -- 95
2018-04-29 03:00:00 4.3 10 Norte 14 Norte 0.4 -- -- 93
2018-04-29 02:00:00 5 3 Noroeste 6 Norte 0.2 -- -- 90
2018-04-29 01:00:00 5.1 0 Calma 9 Sudoeste 0.2 -- -- 89
2018-04-29 00:00:00 4.9 0 Calma 22 Oeste 0 -- -- 87
2018-04-28 23:00:00 5.9 13 Oeste 25 Oeste 0 -- -- 80
2018-04-28 22:00:00 7 9 Oeste 32 Sudoeste 0 -- -- 72
2018-04-28 21:00:00 8.6 13 Sudoeste 31 Sur 0 -- -- 62
2018-04-28 20:00:00 10.7 21 Sur 30 Sudoeste 0 -- -- 56
2018-04-28 19:00:00 11.1 17 Sur 31 Sur 0 -- -- 51
2018-04-28 18:00:00 11.9 23 Sur 37 Sur 0 -- -- 51
2018-04-28 17:00:00 12.3 19 Sudoeste 30 Sur 0 -- -- 50
2018-04-28 16:00:00 10.6 9 Sudeste 22 Sur 0 -- -- 62
2018-04-28 15:00:00 10.6 16 Sur 28 Sur 0 -- -- 59
2018-04-28 14:00:00 10.6 10 Sudoeste 17 Oeste 0 -- -- 58
2018-04-28 13:00:00 10 6 Sudoeste 18 Oeste 0 -- -- 61
2018-04-28 12:00:00 8.8 3 Este 14 Oeste 0 -- -- 74
2018-04-28 11:00:00 6.9 9 Noroeste 17 Oeste 0 -- -- 78
2018-04-28 10:00:00 5.7 7 Oeste 14 Oeste 0 -- -- 86
2018-04-28 09:00:00 5 8 Noroeste 16 Oeste 0 -- -- 89
2018-04-28 08:00:00 4.8 6 Oeste 10 Oeste 0 -- -- 90
2018-04-28 07:00:00 4.6 2 Noroeste 6 Noroeste 0 -- -- 90
2018-04-28 06:00:00 4.7 5 Noroeste 15 Noroeste 0 -- -- 89
2018-04-28 05:00:00 5.2 6 Oeste 13 Noroeste 0 -- -- 87
2018-04-28 04:00:00 5.5 5 Noroeste 12 Noroeste 0 -- -- 85
2018-04-28 03:00:00 6.1 7 Noroeste 14 Oeste 0 -- -- 83
2018-04-28 02:00:00 6.7 6 Noroeste 12 Noroeste 0 -- -- 84
2018-04-28 01:00:00 7.3 7 Noroeste 15 Noroeste 0 -- -- 81
2018-04-28 00:00:00 8.8 8 Noroeste 21 Noroeste 0 -- -- 79